sensor_id;sensor_type;location;lat;lon;timestamp;temperature;humidity
27306;DHT22;14792;50.886;6.468;2022-12-24T00:00:41;10.60;99.90
27306;DHT22;14792;50.886;6.468;2022-12-24T00:03:42;10.60;99.90
27306;DHT22;14792;50.886;6.468;2022-12-24T00:06:44;10.60;99.90
27306;DHT22;14792;50.886;6.468;2022-12-24T00:09:45;10.70;99.90
27306;DHT22;14792;50.886;6.468;2022-12-24T00:12:47;10.70;99.90
27306;DHT22;14792;50.886;6.468;2022-12-24T00:15:49;10.70;99.90
27306;DHT22;14792;50.886;6.468;2022-12-24T00:18:50;10.70;99.90
27306;DHT22;14792;50.886;6.468;2022-12-24T00:21:52;10.70;99.90
27306;DHT22;14792;50.886;6.468;2022-12-24T00:24:53;10.60;99.90
27306;DHT22;14792;50.886;6.468;2022-12-24T00:27:55;10.70;99.90
27306;DHT22;14792;50.886;6.468;2022-12-24T00:30:57;10.70;99.90
27306;DHT22;14792;50.886;6.468;2022-12-24T00:33:58;10.80;99.90
27306;DHT22;14792;50.886;6.468;2022-12-24T00:37:00;10.80;99.90
27306;DHT22;14792;50.886;6.468;2022-12-24T00:40:01;10.80;99.90
27306;DHT22;14792;50.886;6.468;2022-12-24T00:43:03;10.80;99.90
27306;DHT22;14792;50.886;6.468;2022-12-24T00:46:05;10.80;99.90
27306;DHT22;14792;50.886;6.468;2022-12-24T00:49:06;10.80;99.90
27306;DHT22;14792;50.886;6.468;2022-12-24T00:52:08;10.80;99.90
27306;DHT22;14792;50.886;6.468;2022-12-24T00:55:09;10.80;99.90
27306;DHT22;14792;50.886;6.468;2022-12-24T00:58:11;10.90;99.90
27306;DHT22;14792;50.886;6.468;2022-12-24T01:01:13;10.90;99.90
27306;DHT22;14792;50.886;6.468;2022-12-24T01:04:14;10.90;99.90
27306;DHT22;14792;50.886;6.468;2022-12-24T01:07:33;10.90;99.90
27306;DHT22;14792;50.886;6.468;2022-12-24T01:10:35;10.80;99.90
27306;DHT22;14792;50.886;6.468;2022-12-24T01:13:37;10.80;99.90
27306;DHT22;14792;50.886;6.468;2022-12-24T01:16:38;10.70;99.90
27306;DHT22;14792;50.886;6.468;2022-12-24T01:19:40;10.70;99.90
27306;DHT22;14792;50.886;6.468;2022-12-24T01:22:41;10.60;99.90
27306;DHT22;14792;50.886;6.468;2022-12-24T01:25:43;10.60;99.90
27306;DHT22;14792;50.886;6.468;2022-12-24T01:28:45;10.60;99.90
27306;DHT22;14792;50.886;6.468;2022-12-24T01:31:47;10.60;99.90
27306;DHT22;14792;50.886;6.468;2022-12-24T01:34:48;10.60;99.90
27306;DHT22;14792;50.886;6.468;2022-12-24T01:37:50;10.60;99.90
27306;DHT22;14792;50.886;6.468;2022-12-24T01:40:52;10.60;99.90
27306;DHT22;14792;50.886;6.468;2022-12-24T01:44:18;10.60;99.90
27306;DHT22;14792;50.886;6.468;2022-12-24T01:47:23;10.50;99.90
27306;DHT22;14792;50.886;6.468;2022-12-24T01:50:23;10.50;99.90
27306;DHT22;14792;50.886;6.468;2022-12-24T01:53:24;10.50;99.90
27306;DHT22;14792;50.886;6.468;2022-12-24T01:56:26;10.40;99.90
27306;DHT22;14792;50.886;6.468;2022-12-24T01:59:27;10.40;99.90
27306;DHT22;14792;50.886;6.468;2022-12-24T02:02:29;10.40;99.90
27306;DHT22;14792;50.886;6.468;2022-12-24T02:05:34;10.30;99.90
27306;DHT22;14792;50.886;6.468;2022-12-24T02:08:32;10.30;99.90
27306;DHT22;14792;50.886;6.468;2022-12-24T02:11:42;10.30;99.90
27306;DHT22;14792;50.886;6.468;2022-12-24T02:14:44;10.30;99.90
27306;DHT22;14792;50.886;6.468;2022-12-24T02:17:58;10.30;99.90
27306;DHT22;14792;50.886;6.468;2022-12-24T02:30:54;10.30;99.90
27306;DHT22;14792;50.886;6.468;2022-12-24T02:34:01;10.30;99.90
27306;DHT22;14792;50.886;6.468;2022-12-24T02:40:10;10.40;99.90
27306;DHT22;14792;50.886;6.468;2022-12-24T02:43:17;10.40;99.90
27306;DHT22;14792;50.886;6.468;2022-12-24T02:46:20;10.40;99.90
27306;DHT22;14792;50.886;6.468;2022-12-24T02:49:20;10.30;99.90
27306;DHT22;14792;50.886;6.468;2022-12-24T02:52:39;10.30;99.90
27306;DHT22;14792;50.886;6.468;2022-12-24T02:55:43;10.20;99.90
27306;DHT22;14792;50.886;6.468;2022-12-24T03:02:13;10.20;99.90
27306;DHT22;14792;50.886;6.468;2022-12-24T03:08:25;10.10;99.90
27306;DHT22;14792;50.886;6.468;2022-12-24T03:11:22;10.00;99.90
27306;DHT22;14792;50.886;6.468;2022-12-24T03:14:23;10.00;99.90
27306;DHT22;14792;50.886;6.468;2022-12-24T03:17:25;9.90;99.90
27306;DHT22;14792;50.886;6.468;2022-12-24T03:20:36;9.90;99.90
27306;DHT22;14792;50.886;6.468;2022-12-24T03:23:34;9.80;99.90
27306;DHT22;14792;50.886;6.468;2022-12-24T03:26:36;9.80;99.90
27306;DHT22;14792;50.886;6.468;2022-12-24T03:29:38;9.80;99.90
27306;DHT22;14792;50.886;6.468;2022-12-24T03:32:39;9.70;99.90
27306;DHT22;14792;50.886;6.468;2022-12-24T03:35:40;9.70;99.90
27306;DHT22;14792;50.886;6.468;2022-12-24T03:38:42;9.60;99.90
27306;DHT22;14792;50.886;6.468;2022-12-24T03:41:44;9.50;99.90
27306;DHT22;14792;50.886;6.468;2022-12-24T03:44:45;9.50;99.90
27306;DHT22;14792;50.886;6.468;2022-12-24T03:47:47;9.40;99.90
27306;DHT22;14792;50.886;6.468;2022-12-24T03:50:49;9.30;99.90
27306;DHT22;14792;50.886;6.468;2022-12-24T03:53:56;9.30;99.90
27306;DHT22;14792;50.886;6.468;2022-12-24T03:56:57;9.20;99.90
27306;DHT22;14792;50.886;6.468;2022-12-24T03:59:59;9.20;99.90
27306;DHT22;14792;50.886;6.468;2022-12-24T04:03:00;9.10;99.90
27306;DHT22;14792;50.886;6.468;2022-12-24T04:06:03;9.10;99.90
27306;DHT22;14792;50.886;6.468;2022-12-24T04:09:04;9.10;99.90
27306;DHT22;14792;50.886;6.468;2022-12-24T04:12:05;9.10;99.90
27306;DHT22;14792;50.886;6.468;2022-12-24T04:15:07;9.10;99.90
27306;DHT22;14792;50.886;6.468;2022-12-24T04:18:08;9.10;99.90
27306;DHT22;14792;50.886;6.468;2022-12-24T04:21:10;9.10;99.90
27306;DHT22;14792;50.886;6.468;2022-12-24T04:24:12;9.00;99.90
27306;DHT22;14792;50.886;6.468;2022-12-24T04:27:14;9.00;99.90
27306;DHT22;14792;50.886;6.468;2022-12-24T04:30:15;9.00;99.90
27306;DHT22;14792;50.886;6.468;2022-12-24T04:33:16;9.00;99.90
27306;DHT22;14792;50.886;6.468;2022-12-24T04:36:18;9.00;99.90
27306;DHT22;14792;50.886;6.468;2022-12-24T04:39:20;9.00;99.90
27306;DHT22;14792;50.886;6.468;2022-12-24T04:42:21;9.00;99.90
27306;DHT22;14792;50.886;6.468;2022-12-24T04:45:23;9.00;99.90
27306;DHT22;14792;50.886;6.468;2022-12-24T04:48:24;9.00;99.90
27306;DHT22;14792;50.886;6.468;2022-12-24T04:51:26;9.10;99.90
27306;DHT22;14792;50.886;6.468;2022-12-24T04:54:28;9.20;99.90
27306;DHT22;14792;50.886;6.468;2022-12-24T04:57:32;9.40;99.90
27306;DHT22;14792;50.886;6.468;2022-12-24T05:00:33;9.40;99.90
27306;DHT22;14792;50.886;6.468;2022-12-24T05:03:35;9.50;99.90
27306;DHT22;14792;50.886;6.468;2022-12-24T05:06:37;9.60;99.90
27306;DHT22;14792;50.886;6.468;2022-12-24T05:09:38;9.70;99.90
27306;DHT22;14792;50.886;6.468;2022-12-24T05:12:40;9.70;99.90
27306;DHT22;14792;50.886;6.468;2022-12-24T05:15:43;9.60;99.90
27306;DHT22;14792;50.886;6.468;2022-12-24T05:18:43;9.70;99.90
27306;DHT22;14792;50.886;6.468;2022-12-24T05:21:44;9.70;99.90
27306;DHT22;14792;50.886;6.468;2022-12-24T05:24:46;9.70;99.90
27306;DHT22;14792;50.886;6.468;2022-12-24T05:28:05;9.70;99.90
27306;DHT22;14792;50.886;6.468;2022-12-24T05:31:07;9.80;99.90
27306;DHT22;14792;50.886;6.468;2022-12-24T05:34:09;9.80;99.90
27306;DHT22;14792;50.886;6.468;2022-12-24T05:37:10;9.80;99.90
27306;DHT22;14792;50.886;6.468;2022-12-24T05:40:12;9.80;99.90
27306;DHT22;14792;50.886;6.468;2022-12-24T05:43:13;9.80;99.90
27306;DHT22;14792;50.886;6.468;2022-12-24T05:46:17;9.90;99.90
27306;DHT22;14792;50.886;6.468;2022-12-24T05:49:17;9.90;99.90
27306;DHT22;14792;50.886;6.468;2022-12-24T05:52:18;9.90;99.90
27306;DHT22;14792;50.886;6.468;2022-12-24T05:55:20;9.80;99.90
27306;DHT22;14792;50.886;6.468;2022-12-24T05:58:22;9.90;99.90
27306;DHT22;14792;50.886;6.468;2022-12-24T06:01:23;9.90;99.90
27306;DHT22;14792;50.886;6.468;2022-12-24T06:04:26;9.90;99.90
27306;DHT22;14792;50.886;6.468;2022-12-24T06:07:27;9.90;99.90
27306;DHT22;14792;50.886;6.468;2022-12-24T06:10:29;9.90;99.90
27306;DHT22;14792;50.886;6.468;2022-12-24T06:13:31;9.90;99.90
27306;DHT22;14792;50.886;6.468;2022-12-24T06:16:32;10.00;99.90
27306;DHT22;14792;50.886;6.468;2022-12-24T06:19:34;9.90;99.90
27306;DHT22;14792;50.886;6.468;2022-12-24T06:22:35;10.00;99.90
27306;DHT22;14792;50.886;6.468;2022-12-24T06:25:37;10.00;99.90
27306;DHT22;14792;50.886;6.468;2022-12-24T06:28:39;10.00;99.90
27306;DHT22;14792;50.886;6.468;2022-12-24T06:31:40;10.00;99.90
27306;DHT22;14792;50.886;6.468;2022-12-24T06:34:42;10.10;99.90
27306;DHT22;14792;50.886;6.468;2022-12-24T06:37:43;10.00;99.90
27306;DHT22;14792;50.886;6.468;2022-12-24T06:40:45;10.00;99.90
27306;DHT22;14792;50.886;6.468;2022-12-24T06:43:47;10.00;99.90
27306;DHT22;14792;50.886;6.468;2022-12-24T06:46:48;10.00;99.90
27306;DHT22;14792;50.886;6.468;2022-12-24T06:49:50;10.00;99.90
27306;DHT22;14792;50.886;6.468;2022-12-24T06:52:51;9.90;99.90
27306;DHT22;14792;50.886;6.468;2022-12-24T06:55:59;9.90;99.90
27306;DHT22;14792;50.886;6.468;2022-12-24T06:58:54;9.90;99.90
27306;DHT22;14792;50.886;6.468;2022-12-24T07:01:56;9.90;99.90
27306;DHT22;14792;50.886;6.468;2022-12-24T07:04:58;9.90;99.90
27306;DHT22;14792;50.886;6.468;2022-12-24T07:07:59;9.80;99.90
27306;DHT22;14792;50.886;6.468;2022-12-24T07:11:01;9.80;99.90
27306;DHT22;14792;50.886;6.468;2022-12-24T07:14:02;9.90;99.90
27306;DHT22;14792;50.886;6.468;2022-12-24T07:17:04;9.90;99.90
27306;DHT22;14792;50.886;6.468;2022-12-24T07:20:06;9.90;99.90
27306;DHT22;14792;50.886;6.468;2022-12-24T07:23:07;9.90;99.90
27306;DHT22;14792;50.886;6.468;2022-12-24T07:26:09;9.90;99.90
27306;DHT22;14792;50.886;6.468;2022-12-24T07:29:10;9.90;99.90
27306;DHT22;14792;50.886;6.468;2022-12-24T07:32:12;9.90;99.90
27306;DHT22;14792;50.886;6.468;2022-12-24T07:35:14;10.00;99.90
27306;DHT22;14792;50.886;6.468;2022-12-24T07:38:15;10.00;99.90
27306;DHT22;14792;50.886;6.468;2022-12-24T07:41:17;10.10;99.90
27306;DHT22;14792;50.886;6.468;2022-12-24T07:44:19;10.10;99.90
27306;DHT22;14792;50.886;6.468;2022-12-24T07:47:20;10.00;99.90
27306;DHT22;14792;50.886;6.468;2022-12-24T07:50:22;10.10;99.90
27306;DHT22;14792;50.886;6.468;2022-12-24T07:53:25;10.10;99.90
27306;DHT22;14792;50.886;6.468;2022-12-24T07:56:26;10.10;99.90
27306;DHT22;14792;50.886;6.468;2022-12-24T07:59:28;10.10;99.90
27306;DHT22;14792;50.886;6.468;2022-12-24T08:02:29;10.20;99.90
27306;DHT22;14792;50.886;6.468;2022-12-24T08:05:37;10.20;99.90
27306;DHT22;14792;50.886;6.468;2022-12-24T08:08:38;10.30;99.90
27306;DHT22;14792;50.886;6.468;2022-12-24T08:11:40;10.30;99.90
27306;DHT22;14792;50.886;6.468;2022-12-24T08:14:41;10.30;99.90
27306;DHT22;14792;50.886;6.468;2022-12-24T08:17:43;10.30;99.90
27306;DHT22;14792;50.886;6.468;2022-12-24T08:20:45;10.30;99.90
27306;DHT22;14792;50.886;6.468;2022-12-24T08:23:46;10.20;99.90
27306;DHT22;14792;50.886;6.468;2022-12-24T08:26:48;10.10;99.90
27306;DHT22;14792;50.886;6.468;2022-12-24T08:29:50;10.10;99.90
27306;DHT22;14792;50.886;6.468;2022-12-24T08:32:51;10.10;99.90
27306;DHT22;14792;50.886;6.468;2022-12-24T08:35:53;10.10;99.90
27306;DHT22;14792;50.886;6.468;2022-12-24T08:38:54;10.10;99.90
27306;DHT22;14792;50.886;6.468;2022-12-24T08:41:56;10.10;99.90
27306;DHT22;14792;50.886;6.468;2022-12-24T08:44:58;10.20;99.90
27306;DHT22;14792;50.886;6.468;2022-12-24T08:47:59;10.20;99.90
27306;DHT22;14792;50.886;6.468;2022-12-24T08:51:05;10.20;99.90
27306;DHT22;14792;50.886;6.468;2022-12-24T08:54:02;10.30;99.90
27306;DHT22;14792;50.886;6.468;2022-12-24T08:57:04;10.40;99.90
27306;DHT22;14792;50.886;6.468;2022-12-24T09:00:06;10.40;99.90
27306;DHT22;14792;50.886;6.468;2022-12-24T09:03:09;10.50;99.90
27306;DHT22;14792;50.886;6.468;2022-12-24T09:06:09;10.50;99.90
27306;DHT22;14792;50.886;6.468;2022-12-24T09:09:10;10.50;99.90
27306;DHT22;14792;50.886;6.468;2022-12-24T09:12:12;10.50;99.90
27306;DHT22;14792;50.886;6.468;2022-12-24T09:15:14;10.50;99.90
27306;DHT22;14792;50.886;6.468;2022-12-24T09:18:18;10.50;99.90
27306;DHT22;14792;50.886;6.468;2022-12-24T09:21:20;10.50;99.90
27306;DHT22;14792;50.886;6.468;2022-12-24T09:24:21;10.60;99.90
27306;DHT22;14792;50.886;6.468;2022-12-24T09:27:23;10.60;99.90
27306;DHT22;14792;50.886;6.468;2022-12-24T09:30:25;10.60;99.90
27306;DHT22;14792;50.886;6.468;2022-12-24T09:33:30;10.70;99.90
27306;DHT22;14792;50.886;6.468;2022-12-24T09:36:31;10.70;99.90
27306;DHT22;14792;50.886;6.468;2022-12-24T09:39:32;10.80;99.90
27306;DHT22;14792;50.886;6.468;2022-12-24T09:42:47;10.80;99.90
27306;DHT22;14792;50.886;6.468;2022-12-24T09:49:12;10.80;99.90
27306;DHT22;14792;50.886;6.468;2022-12-24T09:52:13;10.80;99.90
27306;DHT22;14792;50.886;6.468;2022-12-24T09:55:24;10.80;99.90
27306;DHT22;14792;50.886;6.468;2022-12-24T09:58:30;10.80;99.90
27306;DHT22;14792;50.886;6.468;2022-12-24T10:01:31;10.80;99.90
27306;DHT22;14792;50.886;6.468;2022-12-24T10:04:32;10.80;99.90
27306;DHT22;14792;50.886;6.468;2022-12-24T10:07:41;10.80;99.90
27306;DHT22;14792;50.886;6.468;2022-12-24T10:20:25;10.90;99.90
27306;DHT22;14792;50.886;6.468;2022-12-24T10:24:17;11.00;99.90
27306;DHT22;14792;50.886;6.468;2022-12-24T10:26:44;11.00;99.90
27306;DHT22;14792;50.886;6.468;2022-12-24T10:29:46;11.00;99.90
27306;DHT22;14792;50.886;6.468;2022-12-24T10:32:47;11.10;99.90
27306;DHT22;14792;50.886;6.468;2022-12-24T10:35:52;11.10;99.90
27306;DHT22;14792;50.886;6.468;2022-12-24T10:38:52;11.20;99.90
27306;DHT22;14792;50.886;6.468;2022-12-24T10:41:54;11.20;99.90
27306;DHT22;14792;50.886;6.468;2022-12-24T10:44:56;11.20;99.90
27306;DHT22;14792;50.886;6.468;2022-12-24T10:47:57;11.10;99.90
27306;DHT22;14792;50.886;6.468;2022-12-24T10:51:02;11.20;99.90
27306;DHT22;14792;50.886;6.468;2022-12-24T10:54:07;11.20;99.90
27306;DHT22;14792;50.886;6.468;2022-12-24T11:00:19;11.10;99.90
27306;DHT22;14792;50.886;6.468;2022-12-24T11:03:22;11.10;99.90
27306;DHT22;14792;50.886;6.468;2022-12-24T11:06:22;11.20;99.90
27306;DHT22;14792;50.886;6.468;2022-12-24T11:09:34;11.30;99.90
27306;DHT22;14792;50.886;6.468;2022-12-24T11:12:36;11.30;99.90
27306;DHT22;14792;50.886;6.468;2022-12-24T11:15:36;11.30;99.90
27306;DHT22;14792;50.886;6.468;2022-12-24T11:18:44;11.30;99.90
27306;DHT22;14792;50.886;6.468;2022-12-24T11:21:39;11.30;99.90
27306;DHT22;14792;50.886;6.468;2022-12-24T11:24:41;11.30;99.90
27306;DHT22;14792;50.886;6.468;2022-12-24T11:27:43;11.30;99.90
27306;DHT22;14792;50.886;6.468;2022-12-24T11:30:58;11.30;99.90
27306;DHT22;14792;50.886;6.468;2022-12-24T11:33:58;11.30;99.90
27306;DHT22;14792;50.886;6.468;2022-12-24T11:37:19;11.30;99.90
27306;DHT22;14792;50.886;6.468;2022-12-24T11:40:20;11.30;99.90
27306;DHT22;14792;50.886;6.468;2022-12-24T11:43:20;11.40;99.90
27306;DHT22;14792;50.886;6.468;2022-12-24T11:46:41;11.50;99.90
27306;DHT22;14792;50.886;6.468;2022-12-24T11:49:41;11.40;99.90
27306;DHT22;14792;50.886;6.468;2022-12-24T11:52:44;11.40;99.90
27306;DHT22;14792;50.886;6.468;2022-12-24T11:55:48;11.40;99.90
27306;DHT22;14792;50.886;6.468;2022-12-24T11:58:53;11.50;99.90
27306;DHT22;14792;50.886;6.468;2022-12-24T12:02:01;11.40;99.90
27306;DHT22;14792;50.886;6.468;2022-12-24T12:05:07;11.30;99.90
27306;DHT22;14792;50.886;6.468;2022-12-24T12:08:09;11.30;99.90
27306;DHT22;14792;50.886;6.468;2022-12-24T12:11:11;11.30;99.90
27306;DHT22;14792;50.886;6.468;2022-12-24T12:14:14;11.30;99.90
27306;DHT22;14792;50.886;6.468;2022-12-24T12:20:34;11.40;99.90
27306;DHT22;14792;50.886;6.468;2022-12-24T12:23:39;11.40;99.90
27306;DHT22;14792;50.886;6.468;2022-12-24T12:26:36;11.50;99.90
27306;DHT22;14792;50.886;6.468;2022-12-24T12:29:41;11.50;99.90
27306;DHT22;14792;50.886;6.468;2022-12-24T12:33:05;11.60;99.90
27306;DHT22;14792;50.886;6.468;2022-12-24T12:36:05;11.60;99.90
27306;DHT22;14792;50.886;6.468;2022-12-24T12:39:07;11.70;99.90
27306;DHT22;14792;50.886;6.468;2022-12-24T12:42:32;11.60;99.90
27306;DHT22;14792;50.886;6.468;2022-12-24T12:45:38;11.50;99.90
27306;DHT22;14792;50.886;6.468;2022-12-24T12:48:41;11.40;99.90
27306;DHT22;14792;50.886;6.468;2022-12-24T12:51:49;11.40;99.90
27306;DHT22;14792;50.886;6.468;2022-12-24T12:54:56;11.30;99.90
27306;DHT22;14792;50.886;6.468;2022-12-24T12:57:55;11.30;99.90
27306;DHT22;14792;50.886;6.468;2022-12-24T13:11:00;11.10;99.90
27306;DHT22;14792;50.886;6.468;2022-12-24T13:17:23;10.90;99.90
27306;DHT22;14792;50.886;6.468;2022-12-24T13:20:27;10.90;99.90
27306;DHT22;14792;50.886;6.468;2022-12-24T13:23:28;10.90;99.90
27306;DHT22;14792;50.886;6.468;2022-12-24T13:26:30;10.90;99.90
27306;DHT22;14792;50.886;6.468;2022-12-24T13:32:36;11.00;99.90
27306;DHT22;14792;50.886;6.468;2022-12-24T13:35:38;11.00;99.90
27306;DHT22;14792;50.886;6.468;2022-12-24T13:38:56;11.00;99.90
27306;DHT22;14792;50.886;6.468;2022-12-24T13:41:58;11.00;99.90
27306;DHT22;14792;50.886;6.468;2022-12-24T13:48:31;11.10;99.90
27306;DHT22;14792;50.886;6.468;2022-12-24T13:51:29;11.20;99.90
27306;DHT22;14792;50.886;6.468;2022-12-24T13:54:31;11.30;99.90
27306;DHT22;14792;50.886;6.468;2022-12-24T13:57:46;11.30;99.90
27306;DHT22;14792;50.886;6.468;2022-12-24T14:00:58;11.30;99.90
27306;DHT22;14792;50.886;6.468;2022-12-24T14:03:59;11.20;99.90
27306;DHT22;14792;50.886;6.468;2022-12-24T14:07:01;11.20;99.90
27306;DHT22;14792;50.886;6.468;2022-12-24T14:10:02;11.10;99.90
27306;DHT22;14792;50.886;6.468;2022-12-24T14:13:04;11.10;99.90
27306;DHT22;14792;50.886;6.468;2022-12-24T14:16:17;10.90;99.90
27306;DHT22;14792;50.886;6.468;2022-12-24T14:19:23;10.90;99.90
27306;DHT22;14792;50.886;6.468;2022-12-24T14:22:27;10.80;99.90
27306;DHT22;14792;50.886;6.468;2022-12-24T14:25:28;10.70;99.90
27306;DHT22;14792;50.886;6.468;2022-12-24T14:28:40;10.60;99.90
27306;DHT22;14792;50.886;6.468;2022-12-24T14:31:49;10.60;99.90
27306;DHT22;14792;50.886;6.468;2022-12-24T14:34:42;10.60;99.90
27306;DHT22;14792;50.886;6.468;2022-12-24T14:37:47;10.50;99.90
27306;DHT22;14792;50.886;6.468;2022-12-24T14:44:01;10.40;99.90
27306;DHT22;14792;50.886;6.468;2022-12-24T14:47:00;10.30;99.90
27306;DHT22;14792;50.886;6.468;2022-12-24T14:56:19;10.20;99.90
27306;DHT22;14792;50.886;6.468;2022-12-24T14:59:21;10.20;99.90
27306;DHT22;14792;50.886;6.468;2022-12-24T15:02:50;10.10;99.90
27306;DHT22;14792;50.886;6.468;2022-12-24T15:06:01;10.10;99.90
27306;DHT22;14792;50.886;6.468;2022-12-24T15:08:58;10.10;99.90
27306;DHT22;14792;50.886;6.468;2022-12-24T15:12:00;10.10;99.90
27306;DHT22;14792;50.886;6.468;2022-12-24T15:15:01;10.10;99.90
27306;DHT22;14792;50.886;6.468;2022-12-24T15:18:03;10.10;99.90
27306;DHT22;14792;50.886;6.468;2022-12-24T15:21:06;10.10;99.90
27306;DHT22;14792;50.886;6.468;2022-12-24T15:24:28;10.10;99.90
27306;DHT22;14792;50.886;6.468;2022-12-24T15:27:30;10.10;99.90
27306;DHT22;14792;50.886;6.468;2022-12-24T15:30:28;10.10;99.90
27306;DHT22;14792;50.886;6.468;2022-12-24T15:33:33;10.10;99.90
27306;DHT22;14792;50.886;6.468;2022-12-24T15:36:34;10.10;99.90
27306;DHT22;14792;50.886;6.468;2022-12-24T15:39:32;10.10;99.90
27306;DHT22;14792;50.886;6.468;2022-12-24T15:42:34;10.10;99.90
27306;DHT22;14792;50.886;6.468;2022-12-24T15:45:38;10.00;99.90
27306;DHT22;14792;50.886;6.468;2022-12-24T15:48:37;10.00;99.90
27306;DHT22;14792;50.886;6.468;2022-12-24T15:51:38;10.00;99.90
27306;DHT22;14792;50.886;6.468;2022-12-24T15:54:43;10.00;99.90
27306;DHT22;14792;50.886;6.468;2022-12-24T15:57:45;9.90;99.90
27306;DHT22;14792;50.886;6.468;2022-12-24T16:00:58;9.90;99.90
27306;DHT22;14792;50.886;6.468;2022-12-24T16:07:01;9.90;99.90
27306;DHT22;14792;50.886;6.468;2022-12-24T16:10:02;9.90;99.90
27306;DHT22;14792;50.886;6.468;2022-12-24T16:13:14;9.80;99.90
27306;DHT22;14792;50.886;6.468;2022-12-24T16:16:17;9.80;99.90
27306;DHT22;14792;50.886;6.468;2022-12-24T16:19:23;9.80;99.90
27306;DHT22;14792;50.886;6.468;2022-12-24T16:22:23;9.70;99.90
27306;DHT22;14792;50.886;6.468;2022-12-24T16:25:31;9.60;99.90
27306;DHT22;14792;50.886;6.468;2022-12-24T16:28:32;9.60;99.90
27306;DHT22;14792;50.886;6.468;2022-12-24T16:31:42;9.60;99.90
27306;DHT22;14792;50.886;6.468;2022-12-24T16:34:38;9.50;99.90
27306;DHT22;14792;50.886;6.468;2022-12-24T16:37:40;9.40;99.90
27306;DHT22;14792;50.886;6.468;2022-12-24T16:40:42;9.30;99.90
27306;DHT22;14792;50.886;6.468;2022-12-24T16:43:43;9.30;99.90
27306;DHT22;14792;50.886;6.468;2022-12-24T16:46:51;9.30;99.90
27306;DHT22;14792;50.886;6.468;2022-12-24T16:49:52;9.20;99.90
27306;DHT22;14792;50.886;6.468;2022-12-24T16:52:53;9.20;99.90
27306;DHT22;14792;50.886;6.468;2022-12-24T16:55:55;9.20;99.90
27306;DHT22;14792;50.886;6.468;2022-12-24T16:58:56;9.10;99.90
27306;DHT22;14792;50.886;6.468;2022-12-24T17:01:58;9.10;99.90
27306;DHT22;14792;50.886;6.468;2022-12-24T17:05:00;9.10;99.90
27306;DHT22;14792;50.886;6.468;2022-12-24T17:08:01;9.10;99.90
27306;DHT22;14792;50.886;6.468;2022-12-24T17:11:03;9.10;99.90
27306;DHT22;14792;50.886;6.468;2022-12-24T17:14:04;9.00;99.90
27306;DHT22;14792;50.886;6.468;2022-12-24T17:17:13;9.00;99.90
27306;DHT22;14792;50.886;6.468;2022-12-24T17:20:08;9.10;99.90
27306;DHT22;14792;50.886;6.468;2022-12-24T17:23:09;9.10;99.90
27306;DHT22;14792;50.886;6.468;2022-12-24T17:26:11;9.10;99.90
27306;DHT22;14792;50.886;6.468;2022-12-24T17:29:12;9.00;99.90
27306;DHT22;14792;50.886;6.468;2022-12-24T17:32:14;8.80;99.90
27306;DHT22;14792;50.886;6.468;2022-12-24T17:35:16;8.70;99.90
27306;DHT22;14792;50.886;6.468;2022-12-24T17:38:17;8.70;99.90
27306;DHT22;14792;50.886;6.468;2022-12-24T17:41:19;8.70;99.90
27306;DHT22;14792;50.886;6.468;2022-12-24T17:44:22;8.60;99.90
27306;DHT22;14792;50.886;6.468;2022-12-24T17:47:23;8.60;99.90
27306;DHT22;14792;50.886;6.468;2022-12-24T17:50:25;8.50;99.90
27306;DHT22;14792;50.886;6.468;2022-12-24T17:53:27;8.30;99.90
27306;DHT22;14792;50.886;6.468;2022-12-24T17:56:28;8.20;99.90
27306;DHT22;14792;50.886;6.468;2022-12-24T17:59:30;8.10;99.90
27306;DHT22;14792;50.886;6.468;2022-12-24T18:02:31;8.00;99.90
27306;DHT22;14792;50.886;6.468;2022-12-24T18:05:33;7.90;99.90
27306;DHT22;14792;50.886;6.468;2022-12-24T18:08:35;7.90;99.90
27306;DHT22;14792;50.886;6.468;2022-12-24T18:11:36;7.80;99.90
27306;DHT22;14792;50.886;6.468;2022-12-24T18:14:38;7.70;99.90
27306;DHT22;14792;50.886;6.468;2022-12-24T18:17:39;7.70;99.90
27306;DHT22;14792;50.886;6.468;2022-12-24T18:20:41;7.70;99.90
27306;DHT22;14792;50.886;6.468;2022-12-24T18:23:43;7.60;99.90
27306;DHT22;14792;50.886;6.468;2022-12-24T18:26:44;7.70;99.90
27306;DHT22;14792;50.886;6.468;2022-12-24T18:29:49;7.60;99.90
27306;DHT22;14792;50.886;6.468;2022-12-24T18:32:51;7.70;99.90
27306;DHT22;14792;50.886;6.468;2022-12-24T18:35:52;7.70;99.90
27306;DHT22;14792;50.886;6.468;2022-12-24T18:38:54;7.70;99.90
27306;DHT22;14792;50.886;6.468;2022-12-24T18:41:56;7.80;99.90
27306;DHT22;14792;50.886;6.468;2022-12-24T18:44:57;7.90;99.90
27306;DHT22;14792;50.886;6.468;2022-12-24T18:47:59;7.80;99.90
27306;DHT22;14792;50.886;6.468;2022-12-24T18:51:00;7.80;99.90
27306;DHT22;14792;50.886;6.468;2022-12-24T18:54:03;7.70;99.90
27306;DHT22;14792;50.886;6.468;2022-12-24T18:57:04;7.70;99.90
27306;DHT22;14792;50.886;6.468;2022-12-24T19:00:05;7.70;99.90
27306;DHT22;14792;50.886;6.468;2022-12-24T19:03:07;7.60;99.90
27306;DHT22;14792;50.886;6.468;2022-12-24T19:06:09;7.50;99.90
27306;DHT22;14792;50.886;6.468;2022-12-24T19:09:10;7.50;99.90
27306;DHT22;14792;50.886;6.468;2022-12-24T19:12:12;7.50;99.90
27306;DHT22;14792;50.886;6.468;2022-12-24T19:15:13;7.40;99.90
27306;DHT22;14792;50.886;6.468;2022-12-24T19:18:15;7.40;99.90
27306;DHT22;14792;50.886;6.468;2022-12-24T19:21:17;7.40;99.90
27306;DHT22;14792;50.886;6.468;2022-12-24T19:24:18;7.30;99.90
27306;DHT22;14792;50.886;6.468;2022-12-24T19:27:20;7.30;99.90
27306;DHT22;14792;50.886;6.468;2022-12-24T19:30:21;7.30;99.90
27306;DHT22;14792;50.886;6.468;2022-12-24T19:33:23;7.30;99.90
27306;DHT22;14792;50.886;6.468;2022-12-24T19:36:26;7.20;99.90
27306;DHT22;14792;50.886;6.468;2022-12-24T19:39:26;7.30;99.90
27306;DHT22;14792;50.886;6.468;2022-12-24T19:42:28;7.30;99.90
27306;DHT22;14792;50.886;6.468;2022-12-24T19:45:29;7.30;99.90
27306;DHT22;14792;50.886;6.468;2022-12-24T19:48:31;7.30;99.90
27306;DHT22;14792;50.886;6.468;2022-12-24T19:51:32;7.30;99.90
27306;DHT22;14792;50.886;6.468;2022-12-24T19:54:34;7.20;99.90
27306;DHT22;14792;50.886;6.468;2022-12-24T19:57:35;7.30;99.90
27306;DHT22;14792;50.886;6.468;2022-12-24T20:00:37;7.30;99.90
27306;DHT22;14792;50.886;6.468;2022-12-24T20:03:39;7.30;99.90
27306;DHT22;14792;50.886;6.468;2022-12-24T20:06:40;7.30;99.90
27306;DHT22;14792;50.886;6.468;2022-12-24T20:09:42;7.30;99.90
27306;DHT22;14792;50.886;6.468;2022-12-24T20:12:43;7.40;99.90
27306;DHT22;14792;50.886;6.468;2022-12-24T20:15:45;7.40;99.90
27306;DHT22;14792;50.886;6.468;2022-12-24T20:18:50;7.40;99.90
27306;DHT22;14792;50.886;6.468;2022-12-24T20:21:51;7.30;99.90
27306;DHT22;14792;50.886;6.468;2022-12-24T20:24:53;7.40;99.90
27306;DHT22;14792;50.886;6.468;2022-12-24T20:27:54;7.40;99.90
27306;DHT22;14792;50.886;6.468;2022-12-24T20:30:56;7.30;99.90
27306;DHT22;14792;50.886;6.468;2022-12-24T20:33:58;7.40;99.90